sensor_id;sensor_type;location;lat;lon;timestamp;P1;durP1;ratioP1;P2;durP2;ratioP2
22557;SDS011;11445;53.816;8.902;2023-04-03T00:00:30;3.75;;;1.73;;
22557;SDS011;11445;53.816;8.902;2023-04-03T00:02:57;6.35;;;1.75;;
22557;SDS011;11445;53.816;8.902;2023-04-03T00:05:24;7.07;;;1.85;;
22557;SDS011;11445;53.816;8.902;2023-04-03T00:07:51;3.00;;;1.50;;
22557;SDS011;11445;53.816;8.902;2023-04-03T00:10:20;3.40;;;1.45;;
22557;SDS011;11445;53.816;8.902;2023-04-03T00:12:47;3.83;;;1.50;;
22557;SDS011;11445;53.816;8.902;2023-04-03T00:15:14;5.22;;;1.42;;
22557;SDS011;11445;53.816;8.902;2023-04-03T00:17:41;5.53;;;1.63;;
22557;SDS011;11445;53.816;8.902;2023-04-03T00:20:09;3.78;;;1.60;;
22557;SDS011;11445;53.816;8.902;2023-04-03T00:22:36;2.15;;;1.40;;
22557;SDS011;11445;53.816;8.902;2023-04-03T00:25:03;4.85;;;1.70;;
22557;SDS011;11445;53.816;8.902;2023-04-03T00:27:32;9.20;;;1.75;;
22557;SDS011;11445;53.816;8.902;2023-04-03T00:29:59;3.47;;;1.48;;
22557;SDS011;11445;53.816;8.902;2023-04-03T00:32:26;7.82;;;1.50;;
22557;SDS011;11445;53.816;8.902;2023-04-03T00:34:53;4.18;;;1.48;;
22557;SDS011;11445;53.816;8.902;2023-04-03T00:37:21;4.70;;;1.88;;
22557;SDS011;11445;53.816;8.902;2023-04-03T00:39:48;7.30;;;2.20;;
22557;SDS011;11445;53.816;8.902;2023-04-03T00:42:15;7.38;;;3.25;;
22557;SDS011;11445;53.816;8.902;2023-04-03T00:47:48;7.93;;;2.60;;
22557;SDS011;11445;53.816;8.902;2023-04-03T00:50:16;2.30;;;1.60;;
22557;SDS011;11445;53.816;8.902;2023-04-03T00:52:43;5.53;;;2.00;;
22557;SDS011;11445;53.816;8.902;2023-04-03T00:55:14;7.55;;;2.45;;
22557;SDS011;11445;53.816;8.902;2023-04-03T00:57:42;5.50;;;2.13;;
22557;SDS011;11445;53.816;8.902;2023-04-03T01:00:12;5.70;;;2.17;;
22557;SDS011;11445;53.816;8.902;2023-04-03T01:02:42;3.20;;;2.08;;
22557;SDS011;11445;53.816;8.902;2023-04-03T01:05:11;6.75;;;2.55;;
22557;SDS011;11445;53.816;8.902;2023-04-03T01:07:38;9.68;;;2.13;;
22557;SDS011;11445;53.816;8.902;2023-04-03T01:10:07;5.30;;;2.25;;
22557;SDS011;11445;53.816;8.902;2023-04-03T01:12:38;4.63;;;2.10;;
22557;SDS011;11445;53.816;8.902;2023-04-03T01:15:07;2.28;;;1.77;;
22557;SDS011;11445;53.816;8.902;2023-04-03T01:17:37;5.03;;;1.77;;
22557;SDS011;11445;53.816;8.902;2023-04-03T01:23:06;4.97;;;2.00;;
22557;SDS011;11445;53.816;8.902;2023-04-03T01:25:42;4.07;;;1.98;;
22557;SDS011;11445;53.816;8.902;2023-04-03T01:28:12;5.53;;;2.15;;
22557;SDS011;11445;53.816;8.902;2023-04-03T01:30:42;3.90;;;1.92;;
22557;SDS011;11445;53.816;8.902;2023-04-03T01:33:15;5.30;;;1.90;;
22557;SDS011;11445;53.816;8.902;2023-04-03T01:35:42;4.85;;;2.00;;
22557;SDS011;11445;53.816;8.902;2023-04-03T01:38:09;7.07;;;2.03;;
22557;SDS011;11445;53.816;8.902;2023-04-03T01:40:36;4.43;;;2.10;;
22557;SDS011;11445;53.816;8.902;2023-04-03T01:43:03;3.53;;;1.63;;
22557;SDS011;11445;53.816;8.902;2023-04-03T01:45:30;3.35;;;1.52;;
22557;SDS011;11445;53.816;8.902;2023-04-03T01:47:57;9.68;;;2.20;;
22557;SDS011;11445;53.816;8.902;2023-04-03T01:50:26;4.53;;;1.88;;
22557;SDS011;11445;53.816;8.902;2023-04-03T01:52:53;6.25;;;2.15;;
22557;SDS011;11445;53.816;8.902;2023-04-03T01:55:20;9.70;;;2.35;;
22557;SDS011;11445;53.816;8.902;2023-04-03T01:57:47;8.38;;;2.30;;
22557;SDS011;11445;53.816;8.902;2023-04-03T02:00:14;5.05;;;2.00;;
22557;SDS011;11445;53.816;8.902;2023-04-03T02:02:42;4.65;;;1.95;;
22557;SDS011;11445;53.816;8.902;2023-04-03T02:05:09;6.03;;;1.92;;
22557;SDS011;11445;53.816;8.902;2023-04-03T02:07:37;6.97;;;2.28;;
22557;SDS011;11445;53.816;8.902;2023-04-03T02:10:04;7.72;;;1.90;;
22557;SDS011;11445;53.816;8.902;2023-04-03T02:12:32;4.63;;;1.67;;
22557;SDS011;11445;53.816;8.902;2023-04-03T02:14:59;4.80;;;1.70;;
22557;SDS011;11445;53.816;8.902;2023-04-03T02:17:26;2.28;;;1.50;;
22557;SDS011;11445;53.816;8.902;2023-04-03T02:19:53;5.47;;;1.65;;
22557;SDS011;11445;53.816;8.902;2023-04-03T02:22:20;6.15;;;1.90;;
22557;SDS011;11445;53.816;8.902;2023-04-03T02:24:49;4.38;;;1.73;;
22557;SDS011;11445;53.816;8.902;2023-04-03T02:27:16;4.85;;;1.90;;
22557;SDS011;11445;53.816;8.902;2023-04-03T02:29:44;4.55;;;1.90;;
22557;SDS011;11445;53.816;8.902;2023-04-03T02:32:11;7.50;;;1.95;;
22557;SDS011;11445;53.816;8.902;2023-04-03T02:34:38;3.72;;;1.42;;
22557;SDS011;11445;53.816;8.902;2023-04-03T02:37:05;6.00;;;1.60;;
22557;SDS011;11445;53.816;8.902;2023-04-03T02:39:32;5.10;;;1.58;;
22557;SDS011;11445;53.816;8.902;2023-04-03T02:42:00;4.20;;;1.70;;
22557;SDS011;11445;53.816;8.902;2023-04-03T02:44:27;4.63;;;1.83;;
22557;SDS011;11445;53.816;8.902;2023-04-03T02:46:54;4.72;;;1.60;;
22557;SDS011;11445;53.816;8.902;2023-04-03T02:49:21;3.58;;;1.73;;
22557;SDS011;11445;53.816;8.902;2023-04-03T02:51:48;3.33;;;1.60;;
22557;SDS011;11445;53.816;8.902;2023-04-03T02:54:16;5.35;;;1.75;;
22557;SDS011;11445;53.816;8.902;2023-04-03T02:56:43;4.55;;;1.42;;
22557;SDS011;11445;53.816;8.902;2023-04-03T02:59:11;3.03;;;1.73;;
22557;SDS011;11445;53.816;8.902;2023-04-03T03:01:38;5.45;;;1.60;;
22557;SDS011;11445;53.816;8.902;2023-04-03T03:04:05;7.88;;;1.48;;
22557;SDS011;11445;53.816;8.902;2023-04-03T03:06:32;5.80;;;1.55;;
22557;SDS011;11445;53.816;8.902;2023-04-03T03:08:59;5.13;;;1.60;;
22557;SDS011;11445;53.816;8.902;2023-04-03T03:11:26;4.07;;;1.40;;
22557;SDS011;11445;53.816;8.902;2023-04-03T03:13:54;3.75;;;1.75;;
22557;SDS011;11445;53.816;8.902;2023-04-03T03:16:22;5.03;;;1.92;;
22557;SDS011;11445;53.816;8.902;2023-04-03T03:18:49;3.53;;;1.67;;
22557;SDS011;11445;53.816;8.902;2023-04-03T03:21:16;2.80;;;1.58;;
22557;SDS011;11445;53.816;8.902;2023-04-03T03:23:43;3.35;;;2.13;;
22557;SDS011;11445;53.816;8.902;2023-04-03T03:26:10;5.97;;;1.58;;
22557;SDS011;11445;53.816;8.902;2023-04-03T03:28:38;10.10;;;1.90;;
22557;SDS011;11445;53.816;8.902;2023-04-03T03:31:06;6.18;;;1.63;;
22557;SDS011;11445;53.816;8.902;2023-04-03T03:33:35;5.50;;;1.65;;
22557;SDS011;11445;53.816;8.902;2023-04-03T03:36:02;3.45;;;1.85;;
22557;SDS011;11445;53.816;8.902;2023-04-03T03:38:29;4.13;;;1.80;;
22557;SDS011;11445;53.816;8.902;2023-04-03T03:40:56;9.90;;;2.10;;
22557;SDS011;11445;53.816;8.902;2023-04-03T03:43:24;7.60;;;2.30;;
22557;SDS011;11445;53.816;8.902;2023-04-03T03:45:51;4.50;;;1.70;;
22557;SDS011;11445;53.816;8.902;2023-04-03T03:48:18;3.65;;;1.88;;
22557;SDS011;11445;53.816;8.902;2023-04-03T03:50:47;8.75;;;2.65;;
22557;SDS011;11445;53.816;8.902;2023-04-03T03:53:14;5.38;;;2.15;;
22557;SDS011;11445;53.816;8.902;2023-04-03T03:55:41;5.75;;;2.20;;
22557;SDS011;11445;53.816;8.902;2023-04-03T03:58:08;4.40;;;1.92;;
22557;SDS011;11445;53.816;8.902;2023-04-03T04:00:36;3.92;;;2.40;;
22557;SDS011;11445;53.816;8.902;2023-04-03T04:03:03;6.10;;;2.13;;
22557;SDS011;11445;53.816;8.902;2023-04-03T04:05:30;5.57;;;2.25;;
22557;SDS011;11445;53.816;8.902;2023-04-03T04:07:58;1.90;;;1.65;;
22557;SDS011;11445;53.816;8.902;2023-04-03T04:10:25;4.60;;;1.73;;
22557;SDS011;11445;53.816;8.902;2023-04-03T04:12:52;4.28;;;2.55;;
22557;SDS011;11445;53.816;8.902;2023-04-03T04:15:19;5.22;;;1.90;;
22557;SDS011;11445;53.816;8.902;2023-04-03T04:17:48;3.35;;;1.90;;
22557;SDS011;11445;53.816;8.902;2023-04-03T04:20:15;5.32;;;2.15;;
22557;SDS011;11445;53.816;8.902;2023-04-03T04:22:42;3.00;;;1.88;;
22557;SDS011;11445;53.816;8.902;2023-04-03T04:25:10;4.72;;;1.88;;
22557;SDS011;11445;53.816;8.902;2023-04-03T04:27:37;6.60;;;2.00;;
22557;SDS011;11445;53.816;8.902;2023-04-03T04:30:05;6.80;;;1.90;;
22557;SDS011;11445;53.816;8.902;2023-04-03T04:32:33;7.47;;;2.53;;
22557;SDS011;11445;53.816;8.902;2023-04-03T04:35:00;5.32;;;2.00;;
22557;SDS011;11445;53.816;8.902;2023-04-03T04:37:27;5.90;;;2.58;;
22557;SDS011;11445;53.816;8.902;2023-04-03T04:39:55;3.92;;;1.92;;
22557;SDS011;11445;53.816;8.902;2023-04-03T04:42:23;6.97;;;2.15;;
22557;SDS011;11445;53.816;8.902;2023-04-03T04:44:51;3.75;;;1.55;;
22557;SDS011;11445;53.816;8.902;2023-04-03T04:47:18;2.95;;;1.55;;
22557;SDS011;11445;53.816;8.902;2023-04-03T04:49:45;5.20;;;2.00;;
22557;SDS011;11445;53.816;8.902;2023-04-03T04:52:13;3.25;;;2.00;;
22557;SDS011;11445;53.816;8.902;2023-04-03T04:54:40;9.70;;;2.20;;
22557;SDS011;11445;53.816;8.902;2023-04-03T04:57:07;7.40;;;1.90;;
22557;SDS011;11445;53.816;8.902;2023-04-03T04:59:36;3.30;;;2.25;;
22557;SDS011;11445;53.816;8.902;2023-04-03T05:02:03;5.32;;;1.80;;
22557;SDS011;11445;53.816;8.902;2023-04-03T05:04:30;4.60;;;2.05;;
22557;SDS011;11445;53.816;8.902;2023-04-03T05:06:58;6.00;;;2.58;;
22557;SDS011;11445;53.816;8.902;2023-04-03T05:09:25;5.18;;;2.08;;
22557;SDS011;11445;53.816;8.902;2023-04-03T05:11:52;5.35;;;2.10;;
22557;SDS011;11445;53.816;8.902;2023-04-03T05:14:21;8.85;;;2.40;;
22557;SDS011;11445;53.816;8.902;2023-04-03T05:16:49;3.95;;;2.10;;
22557;SDS011;11445;53.816;8.902;2023-04-03T05:19:18;2.95;;;1.80;;
22557;SDS011;11445;53.816;8.902;2023-04-03T05:21:46;5.32;;;1.80;;
22557;SDS011;11445;53.816;8.902;2023-04-03T05:24:13;3.92;;;1.85;;
22557;SDS011;11445;53.816;8.902;2023-04-03T05:26:41;4.53;;;2.38;;
22557;SDS011;11445;53.816;8.902;2023-04-03T05:29:08;8.52;;;2.13;;
22557;SDS011;11445;53.816;8.902;2023-04-03T05:31:35;8.77;;;2.85;;
22557;SDS011;11445;53.816;8.902;2023-04-03T05:34:03;5.78;;;2.00;;
22557;SDS011;11445;53.816;8.902;2023-04-03T05:36:31;5.03;;;2.22;;
22557;SDS011;11445;53.816;8.902;2023-04-03T05:38:58;4.60;;;2.30;;
22557;SDS011;11445;53.816;8.902;2023-04-03T05:41:25;5.35;;;2.60;;
22557;SDS011;11445;53.816;8.902;2023-04-03T05:43:52;12.13;;;3.05;;
22557;SDS011;11445;53.816;8.902;2023-04-03T05:46:19;13.50;;;2.95;;
22557;SDS011;11445;53.816;8.902;2023-04-03T05:48:47;6.07;;;2.42;;
22557;SDS011;11445;53.816;8.902;2023-04-03T05:51:16;5.38;;;2.50;;
22557;SDS011;11445;53.816;8.902;2023-04-03T05:53:44;7.78;;;2.70;;
22557;SDS011;11445;53.816;8.902;2023-04-03T05:56:13;5.30;;;2.47;;
22557;SDS011;11445;53.816;8.902;2023-04-03T05:58:40;4.30;;;2.15;;
22557;SDS011;11445;53.816;8.902;2023-04-03T06:01:07;3.88;;;2.38;;
22557;SDS011;11445;53.816;8.902;2023-04-03T06:03:34;4.07;;;2.38;;
22557;SDS011;11445;53.816;8.902;2023-04-03T06:06:02;5.00;;;2.65;;
22557;SDS011;11445;53.816;8.902;2023-04-03T06:08:32;6.32;;;2.60;;
22557;SDS011;11445;53.816;8.902;2023-04-03T06:11:00;7.38;;;2.75;;
22557;SDS011;11445;53.816;8.902;2023-04-03T06:13:27;3.22;;;2.22;;
22557;SDS011;11445;53.816;8.902;2023-04-03T06:15:54;5.43;;;2.00;;
22557;SDS011;11445;53.816;8.902;2023-04-03T06:18:22;3.85;;;2.40;;
22557;SDS011;11445;53.816;8.902;2023-04-03T06:20:49;6.18;;;2.42;;
22557;SDS011;11445;53.816;8.902;2023-04-03T06:23:16;6.97;;;2.83;;
22557;SDS011;11445;53.816;8.902;2023-04-03T06:25:45;10.75;;;3.35;;
22557;SDS011;11445;53.816;8.902;2023-04-03T06:28:12;3.58;;;2.22;;
22557;SDS011;11445;53.816;8.902;2023-04-03T06:30:39;11.27;;;3.05;;
22557;SDS011;11445;53.816;8.902;2023-04-03T06:33:06;9.60;;;2.85;;
22557;SDS011;11445;53.816;8.902;2023-04-03T06:35:33;3.65;;;2.70;;
22557;SDS011;11445;53.816;8.902;2023-04-03T06:38:01;6.60;;;2.95;;
22557;SDS011;11445;53.816;8.902;2023-04-03T06:40:34;6.55;;;3.00;;
22557;SDS011;11445;53.816;8.902;2023-04-03T06:43:03;5.22;;;3.00;;
22557;SDS011;11445;53.816;8.902;2023-04-03T06:45:30;16.25;;;3.22;;
22557;SDS011;11445;53.816;8.902;2023-04-03T06:47:57;9.98;;;3.25;;
22557;SDS011;11445;53.816;8.902;2023-04-03T06:50:24;7.88;;;3.47;;
22557;SDS011;11445;53.816;8.902;2023-04-03T06:52:51;6.65;;;3.03;;
22557;SDS011;11445;53.816;8.902;2023-04-03T06:55:19;8.52;;;3.13;;
22557;SDS011;11445;53.816;8.902;2023-04-03T06:57:46;5.43;;;2.92;;
22557;SDS011;11445;53.816;8.902;2023-04-03T07:00:15;5.72;;;3.15;;
22557;SDS011;11445;53.816;8.902;2023-04-03T07:02:45;9.13;;;2.80;;
22557;SDS011;11445;53.816;8.902;2023-04-03T07:05:13;3.67;;;2.75;;
22557;SDS011;11445;53.816;8.902;2023-04-03T07:07:40;10.45;;;2.97;;
22557;SDS011;11445;53.816;8.902;2023-04-03T07:10:07;6.75;;;2.90;;
22557;SDS011;11445;53.816;8.902;2023-04-03T07:12:35;10.07;;;2.58;;
22557;SDS011;11445;53.816;8.902;2023-04-03T07:15:03;6.18;;;2.78;;
22557;SDS011;11445;53.816;8.902;2023-04-03T07:17:32;4.45;;;2.85;;
22557;SDS011;11445;53.816;8.902;2023-04-03T07:19:59;7.28;;;2.85;;
22557;SDS011;11445;53.816;8.902;2023-04-03T07:22:26;5.85;;;3.00;;
22557;SDS011;11445;53.816;8.902;2023-04-03T07:24:53;13.13;;;3.30;;
22557;SDS011;11445;53.816;8.902;2023-04-03T07:27:20;80.47;;;7.15;;
22557;SDS011;11445;53.816;8.902;2023-04-03T07:29:47;9.15;;;2.78;;
22557;SDS011;11445;53.816;8.902;2023-04-03T07:32:15;8.48;;;2.85;;
22557;SDS011;11445;53.816;8.902;2023-04-03T07:34:44;8.18;;;2.40;;
22557;SDS011;11445;53.816;8.902;2023-04-03T07:37:11;8.70;;;2.60;;
22557;SDS011;11445;53.816;8.902;2023-04-03T07:39:38;14.00;;;2.50;;
22557;SDS011;11445;53.816;8.902;2023-04-03T07:42:05;5.88;;;2.25;;
22557;SDS011;11445;53.816;8.902;2023-04-03T07:44:32;11.75;;;2.38;;
22557;SDS011;11445;53.816;8.902;2023-04-03T07:47:00;8.05;;;2.38;;
22557;SDS011;11445;53.816;8.902;2023-04-03T07:49:27;5.28;;;2.10;;
22557;SDS011;11445;53.816;8.902;2023-04-03T07:51:55;9.77;;;2.20;;
22557;SDS011;11445;53.816;8.902;2023-04-03T07:54:23;7.45;;;1.83;;
22557;SDS011;11445;53.816;8.902;2023-04-03T07:56:50;5.32;;;1.00;;
22557;SDS011;11445;53.816;8.902;2023-04-03T07:59:17;2.25;;;1.08;;
22557;SDS011;11445;53.816;8.902;2023-04-03T08:01:45;2.60;;;1.30;;
22557;SDS011;11445;53.816;8.902;2023-04-03T08:04:12;3.55;;;1.40;;
22557;SDS011;11445;53.816;8.902;2023-04-03T08:06:39;3.03;;;1.15;;
22557;SDS011;11445;53.816;8.902;2023-04-03T08:09:08;4.72;;;1.38;;
22557;SDS011;11445;53.816;8.902;2023-04-03T08:11:35;4.47;;;1.45;;
22557;SDS011;11445;53.816;8.902;2023-04-03T08:14:04;3.63;;;1.67;;
22557;SDS011;11445;53.816;8.902;2023-04-03T08:16:31;4.97;;;1.27;;
22557;SDS011;11445;53.816;8.902;2023-04-03T08:18:59;6.03;;;1.52;;
22557;SDS011;11445;53.816;8.902;2023-04-03T08:21:26;2.72;;;1.50;;
22557;SDS011;11445;53.816;8.902;2023-04-03T08:23:53;6.38;;;1.40;;
22557;SDS011;11445;53.816;8.902;2023-04-03T08:26:21;7.22;;;1.55;;
22557;SDS011;11445;53.816;8.902;2023-04-03T08:28:48;6.85;;;2.60;;
22557;SDS011;11445;53.816;8.902;2023-04-03T08:31:16;3.45;;;1.48;;
22557;SDS011;11445;53.816;8.902;2023-04-03T08:33:45;4.57;;;1.40;;
22557;SDS011;11445;53.816;8.902;2023-04-03T08:36:16;7.93;;;1.42;;
22557;SDS011;11445;53.816;8.902;2023-04-03T08:38:45;4.28;;;1.17;;
22557;SDS011;11445;53.816;8.902;2023-04-03T08:41:14;6.18;;;1.20;;
22557;SDS011;11445;53.816;8.902;2023-04-03T08:43:52;2.05;;;1.00;;
22557;SDS011;11445;53.816;8.902;2023-04-03T08:46:26;3.03;;;1.17;;
22557;SDS011;11445;53.816;8.902;2023-04-03T08:49:04;4.03;;;1.00;;
22557;SDS011;11445;53.816;8.902;2023-04-03T08:51:40;4.25;;;0.95;;
22557;SDS011;11445;53.816;8.902;2023-04-03T08:54:16;2.78;;;1.15;;
22557;SDS011;11445;53.816;8.902;2023-04-03T08:56:53;3.33;;;1.10;;
22557;SDS011;11445;53.816;8.902;2023-04-03T08:59:26;2.97;;;1.17;;
22557;SDS011;11445;53.816;8.902;2023-04-03T09:01:56;1.95;;;0.95;;
22557;SDS011;11445;53.816;8.902;2023-04-03T09:04:27;3.35;;;1.10;;
22557;SDS011;11445;53.816;8.902;2023-04-03T09:06:58;3.33;;;1.10;;
22557;SDS011;11445;53.816;8.902;2023-04-03T09:09:30;2.03;;;0.80;;
22557;SDS011;11445;53.816;8.902;2023-04-03T09:12:04;3.58;;;0.98;;
22557;SDS011;11445;53.816;8.902;2023-04-03T09:14:41;1.33;;;0.77;;
22557;SDS011;11445;53.816;8.902;2023-04-03T09:17:19;1.70;;;0.70;;
22557;SDS011;11445;53.816;8.902;2023-04-03T09:19:53;0.70;;;0.57;;
22557;SDS011;11445;53.816;8.902;2023-04-03T09:22:25;0.90;;;0.68;;
22557;SDS011;11445;53.816;8.902;2023-04-03T09:24:55;4.43;;;1.13;;
22557;SDS011;11445;53.816;8.902;2023-04-03T09:27:26;5.43;;;0.90;;
22557;SDS011;11445;53.816;8.902;2023-04-03T09:29:55;2.03;;;0.80;;
22557;SDS011;11445;53.816;8.902;2023-04-03T09:32:25;3.80;;;1.25;;
22557;SDS011;11445;53.816;8.902;2023-04-03T09:34:55;2.60;;;0.90;;
22557;SDS011;11445;53.816;8.902;2023-04-03T09:37:34;2.83;;;1.17;;
22557;SDS011;11445;53.816;8.902;2023-04-03T09:40:03;2.30;;;0.98;;
22557;SDS011;11445;53.816;8.902;2023-04-03T09:42:32;5.20;;;1.20;;
22557;SDS011;11445;53.816;8.902;2023-04-03T09:45:20;5.03;;;1.10;;
22557;SDS011;11445;53.816;8.902;2023-04-03T09:47:50;1.73;;;0.60;;
22557;SDS011;11445;53.816;8.902;2023-04-03T09:50:32;0.77;;;0.73;;
22557;SDS011;11445;53.816;8.902;2023-04-03T09:53:02;3.83;;;1.02;;
22557;SDS011;11445;53.816;8.902;2023-04-03T09:55:32;3.13;;;0.77;;
22557;SDS011;11445;53.816;8.902;2023-04-03T09:58:21;1.95;;;0.85;;
22557;SDS011;11445;53.816;8.902;2023-04-03T10:00:55;4.13;;;1.00;;
22557;SDS011;11445;53.816;8.902;2023-04-03T10:05:53;2.83;;;1.17;;
22557;SDS011;11445;53.816;8.902;2023-04-03T10:08:22;2.03;;;1.00;;
22557;SDS011;11445;53.816;8.902;2023-04-03T10:13:50;1.55;;;0.63;;
22557;SDS011;11445;53.816;8.902;2023-04-03T10:16:26;3.15;;;0.75;;
22557;SDS011;11445;53.816;8.902;2023-04-03T10:19:04;4.82;;;0.68;;
22557;SDS011;11445;53.816;8.902;2023-04-03T10:21:40;1.90;;;0.73;;
22557;SDS011;11445;53.816;8.902;2023-04-03T10:24:15;2.17;;;0.80;;
22557;SDS011;11445;53.816;8.902;2023-04-03T10:26:50;2.13;;;0.70;;
22557;SDS011;11445;53.816;8.902;2023-04-03T10:29:27;5.90;;;0.90;;
22557;SDS011;11445;53.816;8.902;2023-04-03T10:32:08;2.85;;;0.65;;
22557;SDS011;11445;53.816;8.902;2023-04-03T10:34:50;1.10;;;0.90;;
22557;SDS011;11445;53.816;8.902;2023-04-03T10:37:29;3.45;;;0.77;;
22557;SDS011;11445;53.816;8.902;2023-04-03T10:40:02;2.78;;;0.90;;
22557;SDS011;11445;53.816;8.902;2023-04-03T10:42:42;7.75;;;1.10;;
22557;SDS011;11445;53.816;8.902;2023-04-03T10:45:18;1.13;;;0.60;;
22557;SDS011;11445;53.816;8.902;2023-04-03T10:47:51;3.25;;;1.00;;
22557;SDS011;11445;53.816;8.902;2023-04-03T10:50:30;3.03;;;0.82;;
22557;SDS011;11445;53.816;8.902;2023-04-03T10:53:05;1.75;;;0.60;;
22557;SDS011;11445;53.816;8.902;2023-04-03T10:55:41;2.90;;;0.52;;
22557;SDS011;11445;53.816;8.902;2023-04-03T10:58:18;2.80;;;1.13;;
22557;SDS011;11445;53.816;8.902;2023-04-03T11:00:52;1.23;;;1.13;;
22557;SDS011;11445;53.816;8.902;2023-04-03T11:03:29;1.10;;;0.95;;
22557;SDS011;11445;53.816;8.902;2023-04-03T11:05:59;2.35;;;0.90;;
22557;SDS011;11445;53.816;8.902;2023-04-03T11:08:29;2.78;;;0.90;;
22557;SDS011;11445;53.816;8.902;2023-04-03T11:11:04;0.73;;;0.60;;
22557;SDS011;11445;53.816;8.902;2023-04-03T11:13:35;1.35;;;0.70;;
22557;SDS011;11445;53.816;8.902;2023-04-03T11:16:07;0.70;;;0.70;;
22557;SDS011;11445;53.816;8.902;2023-04-03T11:18:37;4.38;;;0.90;;
22557;SDS011;11445;53.816;8.902;2023-04-03T11:21:11;2.53;;;0.70;;
22557;SDS011;11445;53.816;8.902;2023-04-03T11:23:42;1.20;;;0.85;;
22557;SDS011;11445;53.816;8.902;2023-04-03T11:26:12;1.80;;;1.00;;
22557;SDS011;11445;53.816;8.902;2023-04-03T11:28:40;2.92;;;0.90;;
22557;SDS011;11445;53.816;8.902;2023-04-03T11:31:12;4.22;;;0.95;;
22557;SDS011;11445;53.816;8.902;2023-04-03T11:33:51;1.80;;;0.73;;
22557;SDS011;11445;53.816;8.902;2023-04-03T11:36:24;2.72;;;0.70;;
22557;SDS011;11445;53.816;8.902;2023-04-03T11:38:56;2.17;;;0.70;;
22557;SDS011;11445;53.816;8.902;2023-04-03T11:41:27;1.48;;;0.80;;
22557;SDS011;11445;53.816;8.902;2023-04-03T11:43:57;1.58;;;0.80;;
22557;SDS011;11445;53.816;8.902;2023-04-03T11:46:48;2.60;;;0.80;;
22557;SDS011;11445;53.816;8.902;2023-04-03T11:58:25;1.73;;;0.70;;
22557;SDS011;11445;53.816;8.902;2023-04-03T12:00:55;1.90;;;0.65;;
22557;SDS011;11445;53.816;8.902;2023-04-03T12:03:30;3.97;;;0.60;;
22557;SDS011;11445;53.816;8.902;2023-04-03T12:09:28;2.58;;;0.80;;
22557;SDS011;11445;53.816;8.902;2023-04-03T12:12:00;2.83;;;0.70;;
22557;SDS011;11445;53.816;8.902;2023-04-03T12:14:48;0.88;;;0.70;;
22557;SDS011;11445;53.816;8.902;2023-04-03T12:17:19;2.22;;;0.90;;
22557;SDS011;11445;53.816;8.902;2023-04-03T12:19:51;3.05;;;1.08;;
22557;SDS011;11445;53.816;8.902;2023-04-03T12:22:20;2.30;;;0.90;;
22557;SDS011;11445;53.816;8.902;2023-04-03T12:24:48;3.75;;;1.02;;
22557;SDS011;11445;53.816;8.902;2023-04-03T12:27:21;3.03;;;1.15;;
22557;SDS011;11445;53.816;8.902;2023-04-03T12:29:55;2.47;;;1.20;;
22557;SDS011;11445;53.816;8.902;2023-04-03T12:32:32;3.30;;;1.02;;
22557;SDS011;11445;53.816;8.902;2023-04-03T12:35:14;2.38;;;0.80;;
22557;SDS011;11445;53.816;8.902;2023-04-03T12:37:57;5.80;;;1.20;;
22557;SDS011;11445;53.816;8.902;2023-04-03T12:40:45;10.85;;;1.75;;
22557;SDS011;11445;53.816;8.902;2023-04-03T12:43:27;1.92;;;1.10;;
22557;SDS011;11445;53.816;8.902;2023-04-03T12:46:03;3.70;;;1.13;;
22557;SDS011;11445;53.816;8.902;2023-04-03T12:48:37;1.98;;;1.02;;
22557;SDS011;11445;53.816;8.902;2023-04-03T12:51:13;2.05;;;0.90;;
22557;SDS011;11445;53.816;8.902;2023-04-03T12:53:42;2.28;;;1.17;;
22557;SDS011;11445;53.816;8.902;2023-04-03T12:56:21;4.53;;;1.27;;
22557;SDS011;11445;53.816;8.902;2023-04-03T12:58:50;1.38;;;0.90;;
22557;SDS011;11445;53.816;8.902;2023-04-03T13:01:19;3.45;;;1.25;;
22557;SDS011;11445;53.816;8.902;2023-04-03T13:03:49;2.50;;;1.20;;
22557;SDS011;11445;53.816;8.902;2023-04-03T13:06:19;2.97;;;1.13;;
22557;SDS011;11445;53.816;8.902;2023-04-03T13:08:50;6.43;;;1.40;;
22557;SDS011;11445;53.816;8.902;2023-04-03T13:11:18;6.05;;;1.15;;
22557;SDS011;11445;53.816;8.902;2023-04-03T13:13:54;3.90;;;1.40;;
22557;SDS011;11445;53.816;8.902;2023-04-03T13:16:25;3.20;;;1.50;;
22557;SDS011;11445;53.816;8.902;2023-04-03T13:18:54;4.70;;;0.88;;
22557;SDS011;11445;53.816;8.902;2023-04-03T13:21:22;2.95;;;1.23;;
22557;SDS011;11445;53.816;8.902;2023-04-03T13:23:54;2.72;;;1.20;;
22557;SDS011;11445;53.816;8.902;2023-04-03T13:26:24;5.18;;;1.55;;
22557;SDS011;11445;53.816;8.902;2023-04-03T13:28:52;4.63;;;1.65;;
22557;SDS011;11445;53.816;8.902;2023-04-03T13:31:22;5.60;;;1.35;;
22557;SDS011;11445;53.816;8.902;2023-04-03T13:33:53;4.30;;;1.58;;
22557;SDS011;11445;53.816;8.902;2023-04-03T13:36:24;2.33;;;1.60;;
22557;SDS011;11445;53.816;8.902;2023-04-03T13:39:01;6.10;;;1.52;;
22557;SDS011;11445;53.816;8.902;2023-04-03T13:41:32;3.72;;;1.30;;
22557;SDS011;11445;53.816;8.902;2023-04-03T13:44:16;1.85;;;1.13;;
22557;SDS011;11445;53.816;8.902;2023-04-03T13:46:44;4.57;;;1.60;;
22557;SDS011;11445;53.816;8.902;2023-04-03T13:49:19;4.55;;;1.45;;
22557;SDS011;11445;53.816;8.902;2023-04-03T13:51:47;4.20;;;1.35;;
22557;SDS011;11445;53.816;8.902;2023-04-03T13:54:19;2.15;;;1.55;;
22557;SDS011;11445;53.816;8.902;2023-04-03T13:56:52;3.83;;;1.60;;
22557;SDS011;11445;53.816;8.902;2023-04-03T13:59:22;5.07;;;1.42;;
22557;SDS011;11445;53.816;8.902;2023-04-03T14:01:52;5.40;;;1.58;;
22557;SDS011;11445;53.816;8.902;2023-04-03T14:04:21;9.38;;;3.63;;
22557;SDS011;11445;53.816;8.902;2023-04-03T14:06:50;4.47;;;1.80;;
22557;SDS011;11445;53.816;8.902;2023-04-03T14:09:20;3.63;;;1.50;;
22557;SDS011;11445;53.816;8.902;2023-04-03T14:11:49;4.32;;;1.95;;
22557;SDS011;11445;53.816;8.902;2023-04-03T14:14:19;5.35;;;1.90;;
22557;SDS011;11445;53.816;8.902;2023-04-03T14:16:50;6.70;;;1.60;;
22557;SDS011;11445;53.816;8.902;2023-04-03T14:19:21;9.57;;;1.88;;
22557;SDS011;11445;53.816;8.902;2023-04-03T14:21:50;2.47;;;1.75;;
22557;SDS011;11445;53.816;8.902;2023-04-03T14:24:18;4.80;;;1.38;;
22557;SDS011;11445;53.816;8.902;2023-04-03T14:26:47;5.13;;;1.48;;
22557;SDS011;11445;53.816;8.902;2023-04-03T14:29:17;3.38;;;1.58;;
22557;SDS011;11445;53.816;8.902;2023-04-03T14:31:46;3.67;;;1.42;;
22557;SDS011;11445;53.816;8.902;2023-04-03T14:34:14;7.07;;;2.13;;
22557;SDS011;11445;53.816;8.902;2023-04-03T14:36:42;3.13;;;1.50;;
22557;SDS011;11445;53.816;8.902;2023-04-03T14:39:11;13.13;;;2.92;;
22557;SDS011;11445;53.816;8.902;2023-04-03T14:41:45;5.88;;;1.88;;
22557;SDS011;11445;53.816;8.902;2023-04-03T14:44:12;6.97;;;1.95;;
22557;SDS011;11445;53.816;8.902;2023-04-03T14:46:41;7.82;;;2.33;;
22557;SDS011;11445;53.816;8.902;2023-04-03T14:49:12;3.67;;;1.65;;
22557;SDS011;11445;53.816;8.902;2023-04-03T14:51:41;3.47;;;2.05;;
22557;SDS011;11445;53.816;8.902;2023-04-03T14:54:11;4.20;;;1.58;;
22557;SDS011;11445;53.816;8.902;2023-04-03T14:56:40;4.43;;;1.48;;
22557;SDS011;11445;53.816;8.902;2023-04-03T14:59:09;3.20;;;1.40;;
22557;SDS011;11445;53.816;8.902;2023-04-03T15:01:38;3.40;;;2.00;;
22557;SDS011;11445;53.816;8.902;2023-04-03T15:04:08;4.75;;;1.83;;
22557;SDS011;11445;53.816;8.902;2023-04-03T15:06:38;3.70;;;1.70;;
22557;SDS011;11445;53.816;8.902;2023-04-03T15:09:05;4.53;;;1.50;;
22557;SDS011;11445;53.816;8.902;2023-04-03T15:11:37;2.78;;;1.50;;
22557;SDS011;11445;53.816;8.902;2023-04-03T15:14:04;3.67;;;1.58;;
22557;SDS011;11445;53.816;8.902;2023-04-03T15:16:32;3.40;;;1.63;;
22557;SDS011;11445;53.816;8.902;2023-04-03T15:18:59;6.47;;;2.08;;
22557;SDS011;11445;53.816;8.902;2023-04-03T15:21:27;4.57;;;2.30;;
22557;SDS011;11445;53.816;8.902;2023-04-03T15:23:54;9.60;;;1.80;;
22557;SDS011;11445;53.816;8.902;2023-04-03T15:26:21;6.30;;;1.95;;